Terminal Aerodrome Forecast
Issued by NWS

Home | Current Version | Previous Version | Graphics & Text | Print | Product List | Glossary On
Versions: 1 2 3 4 5 6 7 8 9 10 11 12 13 14 15 16
000
FTUS43 KMPX 220520
TAFRNH
TAF
KRNH 220520Z 2206/2306 27012KT P6SM -RA OVC015
     FM220700 26009KT P6SM BKN025 OVC070
     FM221000 27007KT P6SM SCT150
     FM221800 29010KT P6SM BKN060=

USA.gov is the U.S. government's official web portal to all federal, state and local government web resources and services.